createdAt,value
2018-09-15T00:01:48.003Z,4.37
2018-09-15T00:04:16.363Z,5.00
2018-09-15T00:06:44.668Z,4.20
2018-09-15T00:09:13.845Z,6.12
2018-09-15T00:11:41.925Z,5.17
2018-09-15T00:14:09.972Z,4.08
2018-09-15T00:16:38.087Z,4.25
2018-09-15T00:19:06.495Z,4.80
2018-09-15T00:21:35.047Z,4.37
2018-09-15T00:24:03.107Z,6.28
2018-09-15T00:26:31.225Z,6.17
2018-09-15T00:28:59.481Z,4.35
2018-09-15T00:31:27.512Z,5.47
2018-09-15T00:33:55.750Z,6.00
2018-09-15T00:36:23.765Z,4.95
2018-09-15T00:38:51.835Z,4.87
2018-09-15T00:41:19.938Z,6.87
2018-09-15T00:43:48.066Z,4.35
2018-09-15T00:46:16.075Z,4.67
2018-09-15T00:48:44.339Z,4.17
2018-09-15T00:51:12.359Z,4.33
2018-09-15T00:53:40.546Z,4.03
2018-09-15T00:56:08.771Z,4.75
2018-09-15T00:58:36.799Z,5.30
2018-09-15T01:01:04.964Z,4.58
2018-09-15T01:03:33.398Z,4.53
2018-09-15T01:06:01.786Z,4.12
2018-09-15T01:08:29.862Z,4.37
2018-09-15T01:10:58.382Z,5.78
2018-09-15T01:13:26.482Z,5.35
2018-09-15T01:15:54.763Z,4.50
2018-09-15T01:18:22.938Z,4.42
2018-09-15T01:20:51.003Z,3.95
2018-09-15T01:23:19.228Z,4.37
2018-09-15T01:25:47.454Z,4.78
2018-09-15T01:28:15.492Z,4.87
2018-09-15T01:30:43.775Z,4.70
2018-09-15T01:33:11.882Z,4.28
2018-09-15T01:35:40.035Z,4.40
2018-09-15T01:38:08.080Z,3.75
2018-09-15T01:40:36.135Z,4.72
2018-09-15T01:43:04.273Z,4.33
2018-09-15T01:45:32.325Z,4.40
2018-09-15T01:48:00.446Z,4.37
2018-09-15T01:50:28.471Z,4.33
2018-09-15T01:52:56.557Z,4.90
2018-09-15T01:55:24.714Z,4.95
2018-09-15T01:57:52.794Z,4.50
2018-09-15T02:00:20.922Z,4.42
2018-09-15T02:02:49.019Z,4.72
2018-09-15T02:05:17.145Z,6.35
2018-09-15T02:07:45.227Z,5.83
2018-09-15T02:10:13.647Z,4.92
2018-09-15T02:12:41.885Z,4.00
2018-09-15T02:15:09.896Z,4.15
2018-09-15T02:17:38.019Z,4.67
2018-09-15T02:20:06.040Z,5.35
2018-09-15T02:22:34.252Z,4.70
2018-09-15T02:25:03.052Z,4.47
2018-09-15T02:27:31.273Z,4.85
2018-09-15T02:29:59.441Z,4.85
2018-09-15T02:32:27.482Z,5.50
2018-09-15T02:34:55.519Z,5.10
2018-09-15T02:37:23.675Z,4.92
2018-09-15T02:39:51.843Z,4.92
2018-09-15T02:42:19.993Z,4.65
2018-09-15T02:44:48.096Z,4.70
2018-09-15T02:47:16.116Z,4.85
2018-09-15T02:49:44.167Z,5.50
2018-09-15T02:52:12.173Z,5.20
2018-09-15T02:54:40.226Z,5.60
2018-09-15T02:57:08.250Z,5.20
2018-09-15T02:59:36.289Z,5.57
2018-09-15T03:02:04.675Z,5.65
2018-09-15T03:04:33.511Z,5.70
2018-09-15T03:07:01.754Z,5.22
2018-09-15T03:09:29.909Z,5.67
2018-09-15T03:11:58.098Z,5.77
2018-09-15T03:14:26.166Z,5.20
2018-09-15T03:16:54.422Z,5.53
2018-09-15T03:19:23.134Z,5.63
2018-09-15T03:21:51.254Z,5.53
2018-09-15T03:24:19.314Z,5.70
2018-09-15T03:26:47.665Z,4.80
2018-09-15T03:29:15.866Z,5.20
2018-09-15T03:31:44.003Z,5.30
2018-09-15T03:34:12.365Z,5.00
2018-09-15T03:36:40.416Z,4.97
2018-09-15T03:39:10.225Z,5.25
2018-09-15T03:41:38.318Z,5.37
2018-09-15T03:44:06.541Z,5.57
2018-09-15T03:46:34.817Z,4.93
2018-09-15T03:49:03.812Z,5.53
2018-09-15T03:51:31.851Z,4.93
2018-09-15T03:54:00.131Z,5.63
2018-09-15T03:56:28.162Z,5.13
2018-09-15T03:58:56.897Z,6.17
2018-09-15T04:01:24.979Z,5.53
2018-09-15T04:03:53.112Z,5.87
2018-09-15T04:06:21.136Z,6.00
2018-09-15T04:08:49.268Z,5.70
2018-09-15T04:11:17.280Z,5.70
2018-09-15T04:13:46.291Z,6.20
2018-09-15T04:16:14.631Z,5.30
2018-09-15T04:18:42.746Z,6.42
2018-09-15T04:21:10.828Z,6.40
2018-09-15T04:23:38.920Z,5.58
2018-09-15T04:26:07.297Z,5.27
2018-09-15T04:28:35.633Z,6.33
2018-09-15T04:31:03.862Z,5.90
2018-09-15T04:33:31.886Z,7.47
2018-09-15T04:35:59.912Z,7.17
2018-09-15T04:38:28.008Z,6.80
2018-09-15T04:40:56.223Z,7.55
2018-09-15T04:43:24.302Z,6.92
2018-09-15T04:45:52.498Z,7.62
2018-09-15T04:48:20.552Z,7.83
2018-09-15T04:50:48.756Z,7.22
2018-09-15T04:53:17.024Z,8.38
2018-09-15T04:55:45.066Z,7.22
2018-09-15T04:58:13.151Z,7.30
2018-09-15T05:01:11.957Z,6.53
2018-09-15T05:03:40.016Z,7.03
2018-09-15T05:06:08.220Z,6.85
2018-09-15T05:08:36.609Z,7.72
2018-09-15T05:11:04.908Z,6.62
2018-09-15T05:13:33.239Z,7.80
2018-09-15T05:16:01.727Z,7.28
2018-09-15T05:18:29.778Z,7.08
2018-09-15T05:20:57.933Z,6.62
2018-09-15T05:23:26.044Z,6.00
2018-09-15T05:25:54.065Z,6.72
2018-09-15T05:28:22.107Z,6.42
2018-09-15T05:30:51.214Z,6.15
2018-09-15T05:33:19.235Z,5.47
2018-09-15T05:35:47.351Z,6.28
2018-09-15T05:38:15.634Z,6.03
2018-09-15T05:40:43.751Z,5.85
2018-09-15T05:43:11.834Z,6.15
2018-09-15T05:45:40.194Z,6.03
2018-09-15T05:48:08.351Z,5.95
2018-09-15T05:50:36.475Z,5.35
2018-09-15T05:53:04.813Z,5.72
2018-09-15T05:55:33.114Z,5.80
2018-09-15T05:58:01.159Z,6.05
2018-09-15T06:00:29.328Z,6.30
2018-09-15T06:02:57.388Z,5.22
2018-09-15T06:05:25.459Z,4.50
2018-09-15T06:07:53.563Z,5.20
2018-09-15T06:10:21.668Z,5.40
2018-09-15T06:12:49.699Z,4.62
2018-09-15T06:15:17.795Z,6.60
2018-09-15T06:17:46.084Z,4.42
2018-09-15T06:20:14.126Z,5.05
2018-09-15T06:22:42.410Z,5.17
2018-09-15T06:25:10.483Z,6.30
2018-09-15T06:27:38.566Z,5.20
2018-09-15T06:30:07.481Z,5.50
2018-09-15T06:32:36.793Z,6.33
2018-09-15T06:35:05.026Z,4.50
2018-09-15T06:37:33.079Z,5.62
2018-09-15T06:40:01.259Z,7.30
2018-09-15T06:45:03.999Z,6.05
2018-09-15T06:47:32.344Z,6.87
2018-09-15T06:50:00.473Z,6.33
2018-09-15T06:52:28.534Z,4.90
2018-09-15T06:54:56.663Z,6.30
2018-09-15T06:57:24.683Z,4.80
2018-09-15T06:59:52.788Z,4.80
2018-09-15T07:02:20.998Z,4.75
2018-09-15T07:04:49.139Z,5.03
2018-09-15T07:07:17.151Z,5.65
2018-09-15T07:09:45.247Z,5.42
2018-09-15T07:12:13.356Z,4.83
2018-09-15T07:14:41.422Z,5.10
2018-09-15T07:17:09.515Z,5.10
2018-09-15T07:19:37.780Z,4.28
2018-09-15T07:22:05.797Z,4.08
2018-09-15T07:24:34.087Z,3.65
2018-09-15T07:27:02.101Z,4.08
2018-09-15T07:29:30.122Z,3.97
2018-09-15T07:31:58.503Z,3.00
2018-09-15T07:34:26.695Z,3.63
2018-09-15T07:36:54.802Z,3.63
2018-09-15T07:39:23.057Z,3.10
2018-09-15T07:41:51.075Z,4.03
2018-09-15T07:44:19.099Z,4.33
2018-09-15T07:46:47.155Z,3.80
2018-09-15T07:49:15.226Z,4.45
2018-09-15T07:51:43.325Z,3.50
2018-09-15T07:54:11.753Z,3.03
2018-09-15T07:56:39.754Z,4.90
2018-09-15T07:59:08.174Z,3.25
2018-09-15T08:01:36.456Z,2.50
2018-09-15T08:04:04.594Z,3.05
2018-09-15T08:06:32.649Z,2.80
2018-09-15T08:09:00.833Z,2.30
2018-09-15T08:11:28.903Z,2.27
2018-09-15T08:13:57.044Z,3.05
2018-09-15T08:16:25.250Z,2.87
2018-09-15T08:18:53.387Z,2.98
2018-09-15T08:21:21.472Z,2.33
2018-09-15T08:23:49.660Z,2.40
2018-09-15T08:26:17.841Z,2.00
2018-09-15T08:28:45.912Z,2.60
2018-09-15T08:31:14.046Z,2.83
2018-09-15T08:33:42.066Z,3.02
2018-09-15T08:36:11.189Z,2.02
2018-09-15T08:38:39.471Z,1.98
2018-09-15T08:41:23.480Z,2.65
2018-09-15T08:41:56.568Z,2.52
2018-09-15T08:42:29.591Z,20.45
2018-09-15T08:43:02.688Z,3.05
2018-09-15T08:43:35.715Z,3.90
2018-09-15T08:44:08.959Z,3.12
2018-09-15T08:44:42.003Z,2.98
2018-09-15T08:45:15.104Z,2.35
2018-09-15T08:45:50.247Z,3.25
2018-09-15T08:46:23.296Z,2.62
2018-09-15T08:46:57.405Z,2.05
2018-09-15T08:47:30.485Z,3.62
2018-09-15T08:48:03.546Z,2.33
2018-09-15T08:48:36.639Z,2.33
2018-09-15T08:49:10.209Z,2.95
2018-09-15T08:49:43.246Z,2.40
2018-09-15T08:50:16.367Z,2.35
2018-09-15T08:50:49.508Z,2.50
2018-09-15T08:51:22.559Z,3.08
2018-09-15T08:51:55.688Z,2.33
2018-09-15T08:52:29.418Z,1.82
2018-09-15T08:53:02.428Z,2.15
2018-09-15T08:53:35.439Z,3.00
2018-09-15T08:54:09.492Z,2.52
2018-09-15T08:54:42.509Z,2.25
2018-09-15T08:55:15.574Z,1.87
2018-09-15T08:55:48.760Z,4.65
2018-09-15T08:56:21.782Z,1.87
2018-09-15T08:56:54.822Z,2.08
2018-09-15T08:57:28.007Z,2.90
2018-09-15T08:58:01.022Z,2.42
2018-09-15T08:58:34.057Z,6.03
2018-09-15T08:59:07.100Z,2.70
2018-09-15T08:59:40.274Z,1.95
2018-09-15T09:00:13.373Z,2.33
2018-09-15T09:00:46.405Z,2.60
2018-09-15T09:01:19.705Z,2.27
2018-09-15T09:01:52.882Z,2.08
2018-09-15T09:02:25.960Z,1.80
2018-09-15T09:02:59.131Z,1.80
2018-09-15T09:03:32.198Z,2.27
2018-09-15T09:04:05.252Z,2.20
2018-09-15T09:04:38.255Z,2.30
2018-09-15T09:05:11.419Z,2.33
2018-09-15T09:05:44.445Z,2.27
2018-09-15T09:06:17.804Z,2.00
2018-09-15T09:06:50.883Z,2.20
2018-09-15T09:07:24.048Z,2.08
2018-09-15T09:07:57.071Z,2.62
2018-09-15T09:08:30.111Z,2.77
2018-09-15T09:09:03.549Z,2.70
2018-09-15T09:09:36.565Z,2.70
2018-09-15T09:10:09.828Z,2.12
2018-09-15T09:10:42.822Z,2.20
2018-09-15T09:11:15.864Z,1.85
2018-09-15T09:11:49.002Z,2.83
2018-09-15T09:12:22.237Z,2.60
2018-09-15T09:12:55.415Z,1.52
2018-09-15T09:13:28.510Z,3.83
2018-09-15T09:14:01.762Z,2.35
2018-09-15T09:14:34.788Z,2.10
2018-09-15T09:15:08.015Z,1.50
2018-09-15T09:15:41.027Z,3.42
2018-09-15T09:16:14.272Z,2.95
2018-09-15T09:16:47.342Z,3.08
2018-09-15T09:17:20.403Z,3.00
2018-09-15T09:17:53.482Z,2.00
2018-09-15T09:18:26.581Z,2.00
2018-09-15T09:18:59.674Z,1.85
2018-09-15T09:19:32.806Z,2.92
2018-09-15T09:20:05.922Z,2.25
2018-09-15T09:20:38.862Z,1.77
2018-09-15T09:21:12.134Z,2.58
2018-09-15T09:21:45.342Z,1.62
2018-09-15T09:22:18.704Z,2.10
2018-09-15T09:22:51.714Z,1.60
2018-09-15T09:23:24.739Z,1.70
2018-09-15T09:23:57.954Z,2.33
2018-09-15T09:24:30.992Z,2.20
2018-09-15T09:25:04.078Z,1.52
2018-09-15T09:25:37.172Z,1.67
2018-09-15T09:26:10.360Z,1.77
2018-09-15T09:26:43.564Z,1.95
2018-09-15T09:27:16.700Z,1.75
2018-09-15T09:27:49.720Z,2.17
2018-09-15T09:28:23.006Z,1.98
2018-09-15T09:28:56.659Z,2.20
2018-09-15T09:29:29.688Z,2.13
2018-09-15T09:30:02.700Z,1.50
2018-09-15T09:30:35.994Z,1.75
2018-09-15T09:31:11.394Z,2.52
2018-09-15T09:31:44.569Z,2.30
2018-09-15T09:32:17.654Z,1.50
2018-09-15T09:32:50.714Z,2.25
2018-09-15T09:33:23.816Z,2.00
2018-09-15T09:33:56.875Z,2.65
2018-09-15T09:34:29.926Z,2.43
2018-09-15T09:35:02.963Z,1.75
2018-09-15T09:35:36.196Z,1.72
2018-09-15T09:36:09.300Z,2.40
2018-09-15T09:36:42.434Z,2.10
2018-09-15T09:37:15.482Z,2.30
2018-09-15T09:37:48.539Z,2.02
2018-09-15T09:38:21.946Z,1.72
2018-09-15T09:38:54.986Z,2.08
2018-09-15T09:39:27.995Z,1.90
2018-09-15T09:40:01.071Z,1.82
2018-09-15T09:40:34.552Z,2.20
2018-09-15T09:41:08.038Z,2.42
2018-09-15T09:41:41.656Z,2.47
2018-09-15T09:42:14.875Z,1.98
2018-09-15T09:42:49.010Z,1.98
2018-09-15T09:43:22.296Z,1.62
2018-09-15T09:43:55.604Z,1.62
2018-09-15T09:44:29.217Z,2.08
2018-09-15T09:45:02.693Z,1.95
2018-09-15T09:45:35.736Z,1.60
2018-09-15T09:46:09.551Z,3.25
2018-09-15T09:46:42.855Z,2.08
2018-09-15T09:47:15.902Z,2.10
2018-09-15T09:47:49.291Z,2.40
2018-09-15T09:48:22.523Z,1.70
2018-09-15T09:48:55.747Z,2.87
2018-09-15T09:49:28.805Z,4.75
2018-09-15T09:50:01.860Z,6.45
2018-09-15T09:50:35.288Z,2.77
2018-09-15T09:51:08.383Z,2.17
2018-09-15T09:51:41.403Z,1.63
2018-09-15T09:52:14.565Z,1.70
2018-09-15T09:52:47.708Z,2.15
2018-09-15T09:53:20.854Z,1.70
2018-09-15T09:53:53.933Z,2.37
2018-09-15T09:54:26.974Z,2.35
2018-09-15T09:55:00.069Z,2.75
2018-09-15T09:55:34.281Z,2.02
2018-09-15T09:56:07.929Z,1.75
2018-09-15T09:56:40.988Z,1.67
2018-09-15T09:57:14.115Z,3.92
2018-09-15T09:57:47.291Z,2.55
2018-09-15T09:58:20.515Z,2.15
2018-09-15T09:58:53.680Z,1.57
2018-09-15T09:59:26.896Z,1.70
2018-09-15T10:00:00.043Z,2.52
2018-09-15T10:00:38.627Z,1.77
2018-09-15T10:01:34.059Z,1.82
2018-09-15T10:02:12.799Z,1.45
2018-09-15T10:02:45.915Z,1.57
2018-09-15T10:03:18.959Z,1.92
2018-09-15T10:03:52.388Z,1.63
2018-09-15T10:04:25.465Z,1.60
2018-09-15T10:04:58.647Z,1.27
2018-09-15T10:05:31.798Z,1.22
2018-09-15T10:06:07.062Z,1.60
2018-09-15T10:06:40.088Z,1.70
2018-09-15T10:07:13.122Z,2.52
2018-09-15T10:07:46.122Z,1.67
2018-09-15T10:08:19.167Z,1.82
2018-09-15T10:08:52.459Z,1.83
2018-09-15T10:09:26.052Z,2.50
2018-09-15T10:09:59.091Z,1.95
2018-09-15T10:10:32.149Z,1.32
2018-09-15T10:11:05.331Z,1.30
2018-09-15T10:11:40.653Z,1.20
2018-09-15T10:12:13.942Z,1.10
2018-09-15T10:12:46.942Z,1.67
2018-09-15T10:13:20.155Z,1.55
2018-09-15T10:13:53.337Z,1.20
2018-09-15T10:14:26.456Z,1.42
2018-09-15T10:14:59.515Z,1.40
2018-09-15T10:16:12.925Z,1.50
2018-09-15T10:16:46.034Z,1.65
2018-09-15T10:17:19.307Z,2.25
2018-09-15T10:17:52.355Z,1.45
2018-09-15T10:18:25.511Z,1.75
2018-09-15T10:18:58.694Z,1.40
2018-09-15T10:19:32.343Z,2.60
2018-09-15T10:20:05.586Z,1.65
2018-09-15T10:20:38.651Z,1.47
2018-09-15T10:21:12.043Z,1.52
2018-09-15T10:21:45.159Z,2.30
2018-09-15T10:22:18.180Z,1.20
2018-09-15T10:22:51.233Z,2.80
2018-09-15T10:23:24.357Z,1.40
2018-09-15T10:23:57.386Z,2.08
2018-09-15T10:24:30.455Z,3.87
2018-09-15T10:25:03.590Z,2.33
2018-09-15T10:25:36.769Z,1.75
2018-09-15T10:26:09.941Z,1.85
2018-09-15T10:26:43.003Z,1.95
2018-09-15T10:27:16.023Z,1.45
2018-09-15T10:27:49.146Z,1.75
2018-09-15T10:28:22.262Z,1.80
2018-09-15T10:28:55.276Z,1.60
2018-09-15T10:29:28.438Z,1.10
2018-09-15T10:30:01.603Z,1.20
2018-09-15T10:30:34.640Z,1.40
2018-09-15T10:31:07.872Z,1.20
2018-09-15T10:31:41.468Z,1.60
2018-09-15T10:32:14.692Z,1.42
2018-09-15T10:32:47.710Z,1.67
2018-09-15T10:33:20.902Z,1.03
2018-09-15T10:33:54.031Z,1.37
2018-09-15T10:34:27.055Z,1.65
2018-09-15T10:35:00.126Z,2.35
2018-09-15T10:35:33.404Z,1.55
2018-09-15T10:36:06.734Z,1.37
2018-09-15T10:36:39.788Z,1.45
2018-09-15T10:37:12.806Z,1.70
2018-09-15T10:37:45.909Z,1.67
2018-09-15T10:38:19.084Z,1.40
2018-09-15T10:38:52.095Z,1.10
2018-09-15T10:39:25.678Z,1.57
2018-09-15T10:39:58.150Z,1.22
2018-09-15T10:40:31.252Z,1.13
2018-09-15T10:41:04.617Z,1.32
2018-09-15T10:41:37.647Z,1.07
2018-09-15T10:42:10.910Z,1.17
2018-09-15T10:42:43.953Z,1.20
2018-09-15T10:43:16.991Z,1.12
2018-09-15T10:43:50.070Z,1.50
2018-09-15T10:44:23.176Z,1.50
2018-09-15T10:44:56.196Z,1.10
2018-09-15T10:45:29.326Z,1.20
2018-09-15T10:46:02.515Z,1.50
2018-09-15T10:46:35.575Z,1.55
2018-09-15T10:47:08.594Z,1.57
2018-09-15T10:47:41.770Z,1.52
2018-09-15T10:48:14.865Z,1.70
2018-09-15T10:48:48.486Z,1.57
2018-09-15T10:49:21.630Z,1.87
2018-09-15T10:49:54.818Z,1.25
2018-09-15T10:50:27.972Z,1.40
2018-09-15T10:51:01.018Z,1.65
2018-09-15T10:51:34.147Z,1.30
2018-09-15T10:52:07.341Z,1.25
2018-09-15T10:52:40.418Z,1.45
2018-09-15T10:53:13.483Z,1.42
2018-09-15T10:53:46.482Z,0.95
2018-09-15T10:54:19.484Z,1.45
2018-09-15T10:54:52.600Z,1.37
2018-09-15T10:55:25.834Z,1.57
2018-09-15T10:55:59.275Z,1.62
2018-09-15T10:56:32.463Z,1.55
2018-09-15T10:57:05.980Z,1.07
2018-09-15T10:57:38.987Z,1.20
2018-09-15T10:58:12.017Z,1.20
2018-09-15T10:58:45.035Z,1.60
2018-09-15T10:59:18.739Z,1.40
2018-09-15T10:59:51.765Z,1.82
2018-09-15T11:00:25.139Z,1.37
2018-09-15T11:03:48.756Z,1.20
2018-09-15T11:04:21.794Z,1.05
2018-09-15T11:04:55.052Z,1.20
2018-09-15T11:05:28.079Z,1.00
2018-09-15T11:06:01.635Z,1.62
2018-09-15T11:06:34.567Z,1.45
2018-09-15T11:07:07.787Z,1.30
2018-09-15T11:07:40.848Z,2.02
2018-09-15T11:08:13.886Z,1.77
2018-09-15T11:08:46.910Z,1.57
2018-09-15T11:09:20.253Z,2.10
2018-09-15T11:09:53.334Z,1.70
2018-09-15T11:10:26.421Z,2.02
2018-09-15T11:10:59.517Z,1.40
2018-09-15T11:11:32.577Z,1.32
2018-09-15T11:12:05.599Z,1.87
2018-09-15T11:12:38.614Z,1.30
2018-09-15T11:13:11.804Z,1.15
2018-09-15T11:13:44.903Z,0.85
2018-09-15T11:14:18.123Z,1.00
2018-09-15T11:14:51.238Z,1.30
2018-09-15T11:15:24.282Z,1.10
2018-09-15T11:15:57.314Z,1.20
2018-09-15T11:16:30.394Z,1.52
2018-09-15T11:17:03.404Z,1.20
2018-09-15T11:17:36.463Z,1.47
2018-09-15T11:18:09.551Z,1.17
2018-09-15T11:18:42.561Z,1.52
2018-09-15T11:19:15.599Z,1.10
2018-09-15T11:19:48.679Z,1.40
2018-09-15T11:20:21.886Z,1.30
2018-09-15T11:20:55.042Z,1.70
2018-09-15T11:21:28.273Z,0.95
2018-09-15T11:22:01.486Z,1.30
2018-09-15T11:22:35.008Z,1.60
2018-09-15T11:23:08.011Z,1.42
2018-09-15T11:23:41.076Z,1.60
2018-09-15T11:24:14.110Z,1.12
2018-09-15T11:24:47.137Z,1.20
2018-09-15T11:25:20.183Z,0.70
2018-09-15T11:25:53.466Z,1.20
2018-09-15T11:26:26.574Z,1.52
2018-09-15T11:26:59.815Z,1.30
2018-09-15T11:27:32.851Z,1.35
2018-09-15T11:28:05.940Z,1.50
2018-09-15T11:28:39.056Z,1.00
2018-09-15T11:29:12.063Z,1.27
2018-09-15T11:29:45.165Z,1.00
2018-09-15T11:30:18.257Z,1.45
2018-09-15T11:30:51.275Z,0.78
2018-09-15T11:31:24.284Z,1.35
2018-09-15T11:31:57.360Z,1.20
2018-09-15T11:32:30.532Z,1.00
2018-09-15T11:33:03.594Z,0.90
2018-09-15T11:33:36.588Z,1.30
2018-09-15T11:34:09.843Z,1.37
2018-09-15T11:34:43.051Z,1.22
2018-09-15T11:35:16.269Z,1.30
2018-09-15T11:35:49.523Z,1.30
2018-09-15T11:36:23.126Z,1.47
2018-09-15T11:36:56.226Z,1.43
2018-09-15T11:37:29.355Z,4.47
2018-09-15T11:38:02.634Z,1.70
2018-09-15T11:38:35.819Z,3.17
2018-09-15T11:39:10.446Z,4.17
2018-09-15T11:39:43.625Z,2.15
2018-09-15T11:40:16.995Z,2.33
2018-09-15T11:40:50.095Z,0.98
2018-09-15T11:41:23.284Z,1.15
2018-09-15T11:41:56.327Z,1.47
2018-09-15T11:42:29.362Z,1.02
2018-09-15T11:43:02.380Z,1.72
2018-09-15T11:43:35.420Z,1.47
2018-09-15T11:44:08.843Z,1.40
2018-09-15T11:44:42.199Z,1.20
2018-09-15T11:45:15.311Z,1.85
2018-09-15T11:45:48.415Z,1.42
2018-09-15T11:46:21.443Z,1.20
2018-09-15T11:46:54.455Z,1.20
2018-09-15T11:47:27.613Z,1.92
2018-09-15T11:48:00.906Z,1.15
2018-09-15T11:48:35.436Z,1.10
2018-09-15T11:49:08.636Z,0.98
2018-09-15T11:49:41.758Z,2.58
2018-09-15T11:50:15.011Z,0.80
2018-09-15T11:50:48.186Z,0.85
2018-09-15T11:51:22.285Z,2.05
2018-09-15T11:51:55.499Z,1.30
2018-09-15T11:52:28.994Z,1.30
2018-09-15T11:53:02.133Z,1.20
2018-09-15T11:53:35.290Z,1.67
2018-09-15T11:54:08.303Z,0.72
2018-09-15T11:54:41.389Z,1.50
2018-09-15T11:55:14.443Z,1.12
2018-09-15T11:55:47.771Z,1.22
2018-09-15T11:56:20.909Z,1.72
2018-09-15T11:56:53.940Z,1.25
2018-09-15T11:57:27.339Z,1.20
2018-09-15T11:58:00.608Z,3.30
2018-09-15T11:58:33.635Z,1.67
2018-09-15T11:59:06.643Z,0.88
2018-09-15T11:59:39.688Z,1.52
2018-09-15T12:00:12.721Z,1.72
2018-09-15T12:01:02.407Z,1.42
2018-09-15T12:01:35.665Z,1.90
2018-09-15T12:02:08.959Z,3.58
2018-09-15T12:02:41.955Z,3.80
2018-09-15T12:03:15.229Z,1.82
2018-09-15T12:03:48.257Z,3.23
2018-09-15T12:04:21.415Z,1.17
2018-09-15T12:04:54.470Z,1.40
2018-09-15T12:05:27.618Z,1.22
2018-09-15T12:06:00.894Z,2.37
2018-09-15T12:06:34.215Z,1.57
2018-09-15T12:07:07.429Z,1.20
2018-09-15T12:07:40.639Z,1.22
2018-09-15T12:08:13.839Z,1.57
2018-09-15T12:08:46.902Z,1.20
2018-09-15T12:09:19.918Z,1.17
2018-09-15T12:09:52.963Z,1.30
2018-09-15T12:10:26.170Z,1.90
2018-09-15T12:10:59.699Z,1.34
2018-09-15T12:11:32.809Z,1.20
2018-09-15T12:12:05.930Z,0.90
2018-09-15T12:12:38.978Z,0.70
2018-09-15T12:13:12.016Z,1.87
2018-09-15T12:13:45.203Z,1.87
2018-09-15T12:14:18.501Z,1.10
2018-09-15T12:14:51.503Z,0.90
2018-09-15T12:15:24.564Z,3.37
2018-09-15T12:15:57.935Z,1.70
2018-09-15T12:16:30.982Z,1.50
2018-09-15T12:17:04.047Z,1.80
2018-09-15T12:17:37.072Z,1.85
2018-09-15T12:18:10.195Z,1.80
2018-09-15T12:18:44.074Z,1.20
2018-09-15T12:19:17.216Z,1.00
2018-09-15T12:19:50.484Z,0.90
2018-09-15T12:20:23.624Z,0.90
2018-09-15T12:20:56.971Z,0.90
2018-09-15T12:21:30.258Z,1.37
2018-09-15T12:22:03.340Z,0.88
2018-09-15T12:22:37.267Z,0.90
2018-09-15T12:23:10.325Z,1.10
2018-09-15T12:23:43.481Z,2.15
2018-09-15T12:24:16.628Z,1.30
2018-09-15T12:24:49.862Z,1.60
2018-09-15T12:25:22.994Z,1.65
2018-09-15T12:25:56.250Z,1.40
2018-09-15T12:26:29.375Z,0.68
2018-09-15T12:27:02.414Z,1.25
2018-09-15T12:27:35.499Z,0.70
2018-09-15T12:28:09.246Z,0.98
2018-09-15T12:28:42.286Z,1.30
2018-09-15T12:29:15.376Z,0.88
2018-09-15T12:29:48.386Z,1.22
2018-09-15T12:30:21.403Z,1.20
2018-09-15T12:30:54.563Z,0.90
2018-09-15T12:31:27.665Z,1.10
2018-09-15T12:32:00.732Z,1.05
2018-09-15T12:32:33.929Z,1.20
2018-09-15T12:33:06.959Z,2.17
2018-09-15T12:33:40.248Z,0.68
2018-09-15T12:34:13.228Z,0.60
2018-09-15T12:34:46.332Z,1.10
2018-09-15T12:35:19.380Z,0.93
2018-09-15T12:35:52.687Z,0.80
2018-09-15T12:36:26.116Z,1.02
2018-09-15T12:36:59.154Z,0.85
2018-09-15T12:37:32.310Z,1.55
2018-09-15T12:38:05.466Z,1.23
2018-09-15T12:38:38.648Z,0.80
2018-09-15T12:39:11.673Z,0.70
2018-09-15T12:39:44.678Z,0.90
2018-09-15T12:40:17.798Z,0.60
2018-09-15T12:40:50.885Z,0.98
2018-09-15T12:41:24.063Z,1.42
2018-09-15T12:41:57.134Z,1.50
2018-09-15T12:42:30.288Z,0.80
2018-09-15T12:43:03.482Z,1.00
2018-09-15T12:43:36.644Z,1.17
2018-09-15T12:44:09.821Z,0.70
2018-09-15T12:44:43.008Z,0.45
2018-09-15T12:45:16.086Z,0.93
2018-09-15T12:45:49.202Z,1.32
2018-09-15T12:46:22.359Z,0.90
2018-09-15T12:46:55.527Z,0.62
2018-09-15T12:47:28.575Z,1.12
2018-09-15T12:48:01.638Z,0.68
2018-09-15T12:48:34.639Z,0.70
2018-09-15T12:49:07.979Z,1.12
2018-09-15T12:49:41.175Z,0.57
2018-09-15T12:50:14.252Z,0.80
2018-09-15T12:50:47.397Z,1.27
2018-09-15T12:51:20.641Z,1.02
2018-09-15T12:51:53.728Z,0.93
2018-09-15T12:52:26.922Z,1.25
2018-09-15T12:52:59.894Z,0.70
2018-09-15T12:53:33.002Z,0.53
2018-09-15T12:54:06.751Z,0.78
2018-09-15T12:54:39.789Z,1.37
2018-09-15T12:55:12.826Z,2.87
2018-09-15T12:55:46.084Z,2.05
2018-09-15T12:56:19.266Z,1.50
2018-09-15T12:56:52.288Z,1.00
2018-09-15T12:57:25.496Z,0.93
2018-09-15T12:57:58.686Z,0.80
2018-09-15T12:58:31.727Z,1.75
2018-09-15T12:59:04.815Z,1.10
2018-09-15T12:59:37.962Z,1.82
2018-09-15T13:00:10.997Z,1.22
2018-09-15T13:00:44.199Z,0.88
2018-09-15T13:01:17.291Z,0.70
2018-09-15T13:01:50.509Z,0.90
2018-09-15T13:02:24.291Z,0.98
2018-09-15T13:02:57.587Z,1.45
2018-09-15T13:03:30.697Z,2.40
2018-09-15T13:04:03.739Z,2.02
2018-09-15T13:04:37.754Z,3.67
2018-09-15T13:05:11.004Z,2.45
2018-09-15T13:05:44.187Z,1.77
2018-09-15T13:06:17.196Z,0.85
2018-09-15T13:06:50.695Z,0.95
2018-09-15T13:07:23.913Z,0.63
2018-09-15T13:07:57.023Z,0.60
2018-09-15T13:08:30.085Z,0.62
2018-09-15T13:09:03.583Z,0.98
2018-09-15T13:09:36.594Z,0.68
2018-09-15T13:10:09.613Z,1.20
2018-09-15T13:10:42.718Z,1.77
2018-09-15T13:11:15.855Z,0.75
2018-09-15T13:11:48.886Z,1.47
2018-09-15T13:12:21.909Z,1.37
2018-09-15T13:12:55.119Z,2.12
2018-09-15T13:13:28.147Z,1.72
2018-09-15T13:14:01.172Z,1.00
2018-09-15T13:14:34.206Z,1.40
2018-09-15T13:15:07.383Z,0.80
2018-09-15T13:15:40.475Z,0.72
2018-09-15T13:16:13.567Z,0.90
2018-09-15T13:16:46.615Z,0.70
2018-09-15T13:17:19.693Z,0.90
2018-09-15T13:17:52.799Z,0.60
2018-09-15T13:18:25.849Z,1.17
2018-09-15T13:18:59.152Z,0.78
2018-09-15T13:19:33.019Z,0.70
2018-09-15T13:20:06.559Z,1.55
2018-09-15T13:20:39.903Z,1.05
2018-09-15T13:21:12.994Z,1.02
2018-09-15T13:21:46.108Z,0.72
2018-09-15T13:22:19.152Z,0.60
2018-09-15T13:22:52.395Z,0.70
2018-09-15T13:23:26.310Z,1.00
2018-09-15T13:23:59.388Z,0.90
2018-09-15T13:24:33.433Z,1.25
2018-09-15T13:25:06.699Z,1.62
2018-09-15T13:25:39.855Z,1.37
2018-09-15T13:26:12.871Z,1.22
2018-09-15T13:26:45.929Z,1.00
2018-09-15T13:27:18.944Z,0.85
2018-09-15T13:27:52.157Z,1.50
2018-09-15T13:28:25.257Z,1.25
2018-09-15T13:28:58.314Z,0.88
2018-09-15T13:29:31.514Z,1.30
2018-09-15T13:30:05.012Z,2.25
2018-09-15T13:30:38.046Z,3.30
2018-09-15T13:31:11.368Z,0.62
2018-09-15T13:31:44.375Z,1.07
2018-09-15T13:32:17.445Z,1.57
2018-09-15T13:32:50.483Z,2.50
2018-09-15T13:33:23.666Z,1.12
2018-09-15T13:33:56.682Z,1.80
2018-09-15T13:34:29.728Z,1.00
2018-09-15T13:35:02.745Z,1.00
2018-09-15T13:35:35.747Z,1.72
2018-09-15T13:36:09.220Z,2.35
2018-09-15T13:36:44.171Z,2.02
2018-09-15T13:37:17.442Z,1.37
2018-09-15T13:37:50.697Z,1.25
2018-09-15T13:38:24.009Z,0.80
2018-09-15T13:38:57.843Z,1.00
2018-09-15T13:39:30.866Z,0.90
2018-09-15T13:40:04.586Z,0.98
2018-09-15T13:40:37.713Z,1.25
2018-09-15T13:41:10.839Z,1.17
2018-09-15T13:41:44.071Z,1.52
2018-09-15T13:42:17.314Z,1.02
2018-09-15T13:42:50.354Z,3.02
2018-09-15T13:43:23.519Z,1.00
2018-09-15T13:43:56.717Z,1.22
2018-09-15T13:44:30.036Z,1.12
2018-09-15T13:45:03.089Z,3.67
2018-09-15T13:45:36.258Z,0.90
2018-09-15T13:46:09.417Z,0.85
2018-09-15T13:46:42.761Z,0.70
2018-09-15T13:47:15.762Z,0.72
2018-09-15T13:47:49.084Z,1.20
2018-09-15T13:48:22.307Z,1.07
2018-09-15T13:48:55.356Z,0.80
2018-09-15T13:49:28.403Z,0.72
2018-09-15T13:50:01.470Z,0.80
2018-09-15T13:50:34.798Z,3.20
2018-09-15T13:51:07.935Z,1.50
2018-09-15T13:51:41.036Z,1.10
2018-09-15T13:52:14.238Z,2.60
2018-09-15T13:52:47.907Z,1.27
2018-09-15T13:53:21.007Z,1.05
2018-09-15T13:53:55.026Z,0.70
2018-09-15T13:54:28.248Z,1.27
2018-09-15T13:55:01.363Z,4.45
2018-09-15T13:55:34.542Z,3.55
2018-09-15T13:56:07.651Z,1.70
2018-09-15T13:56:40.700Z,2.02
2018-09-15T13:57:13.731Z,1.20
2018-09-15T13:57:46.964Z,1.10
2018-09-15T13:58:20.145Z,1.00
2018-09-15T13:58:53.359Z,1.10
2018-09-15T13:59:26.394Z,0.88
2018-09-15T13:59:59.514Z,0.85
2018-09-15T14:00:32.719Z,1.42
2018-09-15T14:01:06.328Z,1.15
2018-09-15T14:01:39.544Z,0.75
2018-09-15T14:02:12.568Z,1.02
2018-09-15T14:02:45.789Z,1.12
2018-09-15T14:03:18.845Z,1.65
2018-09-15T14:03:52.100Z,1.52
2018-09-15T14:04:25.323Z,1.90
2018-09-15T14:04:58.645Z,1.20
2018-09-15T14:05:31.628Z,0.80
2018-09-15T14:06:04.675Z,1.00
2018-09-15T14:06:37.719Z,0.70
2018-09-15T14:07:10.826Z,1.20
2018-09-15T14:07:44.196Z,1.00
2018-09-15T14:08:17.190Z,0.57
2018-09-15T14:08:50.258Z,0.80
2018-09-15T14:09:23.773Z,0.82
2018-09-15T14:09:57.095Z,1.30
2018-09-15T14:10:30.263Z,0.70
2018-09-15T14:11:03.969Z,1.07
2018-09-15T14:11:37.356Z,1.30